createdAt,value
2018-12-08T00:00:59.730Z,10.12
2018-12-08T00:03:28.047Z,10.10
2018-12-08T00:05:56.410Z,10.09
2018-12-08T00:08:24.885Z,10.05
2018-12-08T00:10:53.251Z,10.03
2018-12-08T00:13:21.791Z,10.03
2018-12-08T00:15:50.240Z,10.02
2018-12-08T00:18:18.606Z,10.01
2018-12-08T00:23:28.280Z,9.97
2018-12-08T00:25:56.890Z,9.97
2018-12-08T00:28:25.424Z,9.97
2018-12-08T00:31:11.104Z,9.97
2018-12-08T00:33:39.717Z,9.95
2018-12-08T00:36:08.357Z,9.94
2018-12-08T00:38:36.784Z,9.94
2018-12-08T00:41:05.398Z,9.96
2018-12-08T00:43:33.811Z,9.99
2018-12-08T00:48:44.893Z,9.99
2018-12-08T00:51:13.477Z,9.99
2018-12-08T00:53:42.168Z,10.00
2018-12-08T00:56:10.653Z,10.02
2018-12-08T00:58:39.630Z,10.04
2018-12-08T01:03:53.749Z,10.03
2018-12-08T01:06:22.339Z,10.02
2018-12-08T01:08:50.902Z,10.04
2018-12-08T01:11:19.494Z,10.03
2018-12-08T01:16:30.202Z,10.02
2018-12-08T01:18:58.875Z,10.03
2018-12-08T01:21:27.372Z,10.04
2018-12-08T01:23:56.033Z,10.05
2018-12-08T01:26:24.617Z,10.05
2018-12-08T01:31:35.395Z,10.08
2018-12-08T01:36:46.215Z,10.07
2018-12-08T01:39:14.683Z,10.08
2018-12-08T01:41:43.412Z,10.08
2018-12-08T01:44:12.197Z,10.06
2018-12-08T01:46:41.174Z,10.06
2018-12-08T01:49:10.102Z,10.04
2018-12-08T01:51:39.197Z,10.06
2018-12-08T01:56:49.908Z,10.07
2018-12-08T01:59:18.419Z,10.09
2018-12-08T02:01:46.959Z,10.12
2018-12-08T02:04:15.396Z,10.14
2018-12-08T02:06:43.991Z,10.16
2018-12-08T02:09:14.447Z,10.20
2018-12-08T02:11:45.135Z,10.23
2018-12-08T02:14:13.813Z,10.23
2018-12-08T02:19:24.506Z,10.25
2018-12-08T02:21:52.907Z,10.25
2018-12-08T02:24:21.257Z,10.26
2018-12-08T02:26:49.628Z,10.28
2018-12-08T02:29:18.086Z,10.30
2018-12-08T02:31:46.921Z,10.29
2018-12-08T02:34:15.856Z,10.32
2018-12-08T02:39:26.175Z,10.29
2018-12-08T02:41:54.637Z,10.28
2018-12-08T02:47:04.769Z,10.30
2018-12-08T02:49:33.114Z,10.28
2018-12-08T02:52:01.511Z,10.28
2018-12-08T02:54:29.857Z,10.26
2018-12-08T02:59:40.147Z,10.23
2018-12-08T03:04:50.479Z,10.22
2018-12-08T03:07:22.567Z,10.21
2018-12-08T03:09:50.879Z,10.22
2018-12-08T03:15:03.580Z,10.21
2018-12-08T03:17:32.193Z,10.21
2018-12-08T03:20:00.793Z,10.22
2018-12-08T03:22:30.076Z,10.19
2018-12-08T03:27:36.973Z,10.14
2018-12-08T03:30:05.677Z,10.12
2018-12-08T03:32:34.025Z,10.07
2018-12-08T03:35:02.629Z,10.07
2018-12-08T03:37:30.953Z,10.07
2018-12-08T03:39:59.369Z,10.06
2018-12-08T03:42:27.790Z,10.04
2018-12-08T03:47:38.198Z,9.94
2018-12-08T03:50:07.238Z,9.88
2018-12-08T03:55:17.383Z,9.82
2018-12-08T03:57:45.762Z,9.79
2018-12-08T04:00:14.146Z,9.73
2018-12-08T04:02:42.859Z,9.67
2018-12-08T04:05:11.338Z,9.63
2018-12-08T04:07:40.024Z,9.59
2018-12-08T04:10:08.536Z,9.52
2018-12-08T04:12:36.882Z,9.44
2018-12-08T04:15:06.394Z,9.41
2018-12-08T04:20:16.594Z,9.34
2018-12-08T04:25:26.774Z,9.23
2018-12-08T04:27:55.277Z,9.20
2018-12-08T04:30:23.793Z,9.16
2018-12-08T04:32:52.182Z,9.12
2018-12-08T04:35:20.634Z,9.08
2018-12-08T04:40:31.056Z,8.98
2018-12-08T04:42:59.423Z,8.93
2018-12-08T04:45:27.797Z,8.88
2018-12-08T04:47:56.327Z,8.87
2018-12-08T04:53:06.480Z,8.85
2018-12-08T04:55:34.817Z,8.82
2018-12-08T04:58:03.190Z,8.81
2018-12-08T05:00:31.607Z,8.81
2018-12-08T05:03:00.403Z,8.83
2018-12-08T05:05:28.785Z,8.82
2018-12-08T05:07:57.134Z,8.81
2018-12-08T05:10:25.508Z,8.85
2018-12-08T05:12:53.836Z,8.84
2018-12-08T05:18:04.116Z,8.88
2018-12-08T05:20:32.667Z,8.89
2018-12-08T05:25:42.786Z,8.93
2018-12-08T05:28:11.385Z,8.95
2018-12-08T05:30:39.880Z,8.96
2018-12-08T05:33:08.461Z,8.97
2018-12-08T05:35:36.977Z,8.97
2018-12-08T05:40:47.177Z,9.02
2018-12-08T05:45:57.531Z,9.07
2018-12-08T05:48:25.926Z,9.09
2018-12-08T05:50:54.279Z,9.10
2018-12-08T05:56:04.405Z,9.15
2018-12-08T05:58:33.272Z,9.16
2018-12-08T06:01:01.808Z,9.17
2018-12-08T06:03:30.112Z,9.20
2018-12-08T06:08:46.540Z,9.20
2018-12-08T06:11:15.032Z,9.23
2018-12-08T06:13:43.460Z,9.22
2018-12-08T06:16:11.831Z,9.23
2018-12-08T06:18:40.206Z,9.22
2018-12-08T06:21:08.588Z,9.22
2018-12-08T06:23:36.912Z,9.21
2018-12-08T06:26:21.066Z,9.18
2018-12-08T06:28:53.730Z,9.17
2018-12-08T06:31:22.220Z,9.16
2018-12-08T06:33:50.634Z,9.17
2018-12-08T06:36:19.103Z,9.17
2018-12-08T06:38:47.486Z,9.19
2018-12-08T06:41:16.042Z,9.20
2018-12-08T06:43:44.518Z,9.23
2018-12-08T06:46:13.069Z,9.25
2018-12-08T06:48:41.475Z,9.29
2018-12-08T06:51:10.008Z,9.34
2018-12-08T06:53:38.451Z,9.34
2018-12-08T06:56:06.935Z,9.30
2018-12-08T06:58:35.740Z,9.30
2018-12-08T07:01:04.252Z,9.29
2018-12-08T07:03:32.859Z,9.32
2018-12-08T07:06:01.327Z,9.34
2018-12-08T07:08:29.997Z,9.37
2018-12-08T07:10:58.541Z,9.41
2018-12-08T07:13:26.871Z,9.41
2018-12-08T07:15:56.256Z,9.40
2018-12-08T07:18:26.267Z,9.42
2018-12-08T07:20:55.065Z,9.39
2018-12-08T07:23:23.572Z,9.39
2018-12-08T07:25:51.934Z,9.39
2018-12-08T07:28:21.327Z,9.40
2018-12-08T07:30:49.879Z,9.35
2018-12-08T07:36:00.025Z,9.30
2018-12-08T07:38:28.936Z,9.33
2018-12-08T07:40:57.313Z,9.33
2018-12-08T07:43:25.906Z,9.33
2018-12-08T07:45:55.306Z,9.35
2018-12-08T07:48:23.939Z,9.31
2018-12-08T07:50:52.349Z,9.27
2018-12-08T07:56:02.638Z,9.26
2018-12-08T07:58:30.947Z,9.28
2018-12-08T08:00:59.657Z,9.30
2018-12-08T08:03:28.055Z,9.32
2018-12-08T08:05:56.490Z,9.33
2018-12-08T08:08:24.872Z,9.33
2018-12-08T08:10:53.413Z,9.33
2018-12-08T08:13:21.805Z,9.33
2018-12-08T08:15:50.190Z,9.32
2018-12-08T08:21:01.453Z,9.34
2018-12-08T08:23:29.801Z,9.35
2018-12-08T08:28:39.939Z,9.40
2018-12-08T08:31:08.370Z,9.42
2018-12-08T08:33:36.759Z,9.45
2018-12-08T08:36:05.115Z,9.48
2018-12-08T08:41:16.283Z,9.57
2018-12-08T08:43:44.787Z,9.60
2018-12-08T08:46:13.315Z,9.64
2018-12-08T08:48:41.861Z,9.64
2018-12-08T08:56:20.070Z,9.72
2018-12-08T09:01:30.381Z,9.77
2018-12-08T09:03:59.034Z,9.76
2018-12-08T09:09:09.486Z,9.80
2018-12-08T09:16:47.687Z,9.82
2018-12-08T09:19:16.063Z,9.84
2018-12-08T09:21:44.499Z,9.81
2018-12-08T09:24:13.062Z,9.84
2018-12-08T09:29:23.280Z,9.84
2018-12-08T09:31:51.816Z,9.83
2018-12-08T09:37:02.494Z,9.84
2018-12-08T09:39:30.948Z,9.84
2018-12-08T09:41:59.403Z,9.81
2018-12-08T09:44:28.242Z,9.82
2018-12-08T09:46:56.642Z,9.83
2018-12-08T09:52:06.829Z,9.87
2018-12-08T09:57:17.065Z,9.87
2018-12-08T09:59:45.531Z,9.86
2018-12-08T10:02:13.975Z,9.86
2018-12-08T10:04:42.411Z,9.88
2018-12-08T10:07:10.991Z,9.90
2018-12-08T10:09:39.381Z,9.92
2018-12-08T10:12:07.887Z,9.93
2018-12-08T10:17:22.130Z,9.96
2018-12-08T10:19:50.523Z,9.93
2018-12-08T10:25:01.269Z,9.98
2018-12-08T10:27:29.707Z,10.02
2018-12-08T10:29:58.252Z,10.03
2018-12-08T10:32:26.668Z,10.07
2018-12-08T10:34:55.074Z,10.11
2018-12-08T10:37:23.631Z,10.16
2018-12-08T10:39:52.084Z,10.18
2018-12-08T10:42:20.575Z,10.24
2018-12-08T10:44:48.958Z,10.28
2018-12-08T10:49:59.734Z,10.37
2018-12-08T10:55:11.028Z,10.47
2018-12-08T10:57:39.461Z,10.53
2018-12-08T11:00:13.380Z,10.55
2018-12-08T11:05:36.265Z,10.58
2018-12-08T11:08:04.654Z,10.60
2018-12-08T11:10:33.298Z,10.61
2018-12-08T11:13:02.185Z,10.63
2018-12-08T11:15:30.530Z,10.64
2018-12-08T11:20:41.020Z,10.63
2018-12-08T11:23:09.353Z,10.65
2018-12-08T11:28:19.514Z,10.64
2018-12-08T11:30:47.840Z,10.60
2018-12-08T11:33:16.214Z,10.59
2018-12-08T11:35:45.178Z,10.58
2018-12-08T11:38:13.691Z,10.59
2018-12-08T11:40:42.110Z,10.61
2018-12-08T11:43:10.493Z,10.63
2018-12-08T11:48:20.643Z,10.66
2018-12-08T11:50:49.070Z,10.65
2018-12-08T11:53:17.432Z,10.65
2018-12-08T11:55:45.843Z,10.68
2018-12-08T11:58:14.360Z,10.71
2018-12-08T12:00:42.713Z,10.74
2018-12-08T12:03:11.157Z,10.75
2018-12-08T12:08:21.660Z,10.80
2018-12-08T12:10:50.059Z,10.82
2018-12-08T12:13:18.514Z,10.82
2018-12-08T12:15:47.076Z,10.84
2018-12-08T12:18:15.600Z,10.89
2018-12-08T12:20:44.077Z,10.90
2018-12-08T12:23:12.542Z,10.92
2018-12-08T12:25:41.102Z,10.96
2018-12-08T12:28:11.160Z,10.99
2018-12-08T12:30:39.933Z,10.99
2018-12-08T12:33:08.299Z,11.00
2018-12-08T12:35:36.923Z,11.01
2018-12-08T12:38:06.514Z,11.03
2018-12-08T12:40:35.243Z,11.05
2018-12-08T12:43:03.747Z,11.04
2018-12-08T12:45:32.163Z,11.05
2018-12-08T12:48:00.805Z,11.04
2018-12-08T12:50:29.282Z,11.04
2018-12-08T12:52:57.634Z,11.05
2018-12-08T12:55:26.072Z,11.05
2018-12-08T12:57:54.467Z,11.04
2018-12-08T13:00:22.932Z,11.03
2018-12-08T13:02:51.459Z,11.05
2018-12-08T13:05:20.013Z,11.03
2018-12-08T13:07:49.298Z,11.01
2018-12-08T13:10:17.962Z,11.00
2018-12-08T13:12:46.471Z,10.99
2018-12-08T13:15:18.817Z,10.97
2018-12-08T13:17:47.256Z,10.99
2018-12-08T13:20:16.564Z,10.98
2018-12-08T13:22:45.822Z,10.98
2018-12-08T13:25:24.046Z,11.00
2018-12-08T13:27:52.434Z,11.00
2018-12-08T13:30:21.097Z,10.99
2018-12-08T13:32:49.540Z,10.97
2018-12-08T13:35:59.408Z,10.98
2018-12-08T13:38:28.246Z,10.95
2018-12-08T13:40:57.137Z,10.94
2018-12-08T13:43:25.596Z,10.94
2018-12-08T13:45:54.205Z,10.92
2018-12-08T13:48:24.593Z,10.91
2018-12-08T13:50:53.602Z,10.97
2018-12-08T13:53:22.342Z,10.95
2018-12-08T13:55:51.487Z,10.97
2018-12-08T13:58:20.038Z,10.96
2018-12-08T14:00:48.463Z,10.94
2018-12-08T14:03:17.087Z,10.95
2018-12-08T14:05:45.498Z,10.94
2018-12-08T14:08:14.084Z,10.94
2018-12-08T14:10:42.479Z,10.93
2018-12-08T14:13:10.848Z,10.91
2018-12-08T14:15:40.540Z,10.89
2018-12-08T14:18:09.243Z,10.89
2018-12-08T14:20:37.853Z,10.87
2018-12-08T14:23:06.257Z,10.84
2018-12-08T14:25:34.813Z,10.83
2018-12-08T14:28:03.598Z,10.81
2018-12-08T14:30:32.169Z,10.77
2018-12-08T14:33:00.846Z,10.75
2018-12-08T14:35:29.582Z,10.71
2018-12-08T14:37:58.140Z,10.69
2018-12-08T14:40:26.577Z,10.64
2018-12-08T14:45:37.231Z,10.65
2018-12-08T14:48:05.728Z,10.62
2018-12-08T14:50:34.202Z,10.60
2018-12-08T14:53:02.618Z,10.60
2018-12-08T14:55:31.028Z,10.59
2018-12-08T15:00:45.558Z,10.59
2018-12-08T15:03:14.087Z,10.60
2018-12-08T15:05:42.552Z,10.60
2018-12-08T15:08:10.925Z,10.58
2018-12-08T15:10:39.365Z,10.61
2018-12-08T15:13:09.011Z,10.60
2018-12-08T15:15:37.392Z,10.58
2018-12-08T15:18:05.823Z,10.56
2018-12-08T15:20:34.581Z,10.56
2018-12-08T15:25:45.090Z,10.56
2018-12-08T15:28:13.523Z,10.55
2018-12-08T15:30:41.988Z,10.54
2018-12-08T15:33:10.813Z,10.55
2018-12-08T15:35:39.483Z,10.53
2018-12-08T15:38:08.051Z,10.54
2018-12-08T15:40:36.510Z,10.55
2018-12-08T15:43:04.938Z,10.55
2018-12-08T15:45:33.470Z,10.55
2018-12-08T15:48:02.608Z,10.57
2018-12-08T15:50:31.359Z,10.58
2018-12-08T15:52:59.724Z,10.56
2018-12-08T15:55:28.757Z,10.56
2018-12-08T16:00:39.514Z,10.54
2018-12-08T16:05:50.853Z,10.54
2018-12-08T16:08:19.458Z,10.53
2018-12-08T16:10:48.246Z,10.51
2018-12-08T16:13:17.668Z,10.53
2018-12-08T16:15:46.280Z,10.52
2018-12-08T16:20:57.349Z,10.48
2018-12-08T16:23:25.811Z,10.46
2018-12-08T16:25:54.388Z,10.44
2018-12-08T16:28:23.144Z,10.45
2018-12-08T16:33:33.724Z,10.43
2018-12-08T16:36:02.381Z,10.40
2018-12-08T16:41:13.400Z,10.38
2018-12-08T16:43:42.898Z,10.37
2018-12-08T16:46:11.543Z,10.36
2018-12-08T16:48:40.367Z,10.38
2018-12-08T16:53:51.182Z,10.39
2018-12-08T16:56:19.730Z,10.42
2018-12-08T16:58:48.319Z,10.44
2018-12-08T17:01:16.861Z,10.45
2018-12-08T17:03:45.523Z,10.45
2018-12-08T17:08:56.349Z,10.48
2018-12-08T17:11:24.990Z,10.49
2018-12-08T17:16:36.423Z,10.51
2018-12-08T17:19:05.668Z,10.53
2018-12-08T17:21:34.853Z,10.56
2018-12-08T17:24:03.668Z,10.57
2018-12-08T17:29:14.308Z,10.58
2018-12-08T17:31:43.047Z,10.59
2018-12-08T17:36:53.663Z,10.62
2018-12-08T17:39:22.760Z,10.65
2018-12-08T17:41:51.989Z,10.68
2018-12-08T17:44:20.799Z,10.68
2018-12-08T17:46:49.594Z,10.69
2018-12-08T17:49:19.654Z,10.69
2018-12-08T17:51:48.213Z,10.71
2018-12-08T17:56:57.893Z,10.71
2018-12-08T17:59:26.484Z,10.70
2018-12-08T18:01:55.107Z,10.69
2018-12-08T18:04:31.870Z,10.64
2018-12-08T18:09:45.504Z,10.58
2018-12-08T18:12:14.058Z,10.56
2018-12-08T18:17:22.051Z,10.52
2018-12-08T18:19:50.450Z,10.48
2018-12-08T18:22:19.241Z,10.47
2018-12-08T18:24:48.002Z,10.46
2018-12-08T18:27:16.552Z,10.43
2018-12-08T18:29:44.895Z,10.43
2018-12-08T18:32:13.385Z,10.39
2018-12-08T18:34:41.856Z,10.38
2018-12-08T18:37:10.454Z,10.37
2018-12-08T18:39:39.248Z,10.36
2018-12-08T18:42:08.049Z,10.36
2018-12-08T18:44:36.793Z,10.36
2018-12-08T18:47:05.023Z,10.37
2018-12-08T18:49:33.878Z,10.39
2018-12-08T18:52:02.858Z,10.42
2018-12-08T18:54:31.568Z,10.43
2018-12-08T18:57:00.066Z,10.46
2018-12-08T18:59:28.898Z,10.46
2018-12-08T19:01:57.544Z,10.49
2018-12-08T19:04:27.216Z,10.53
2018-12-08T19:06:56.011Z,10.56
2018-12-08T19:09:24.747Z,10.59
2018-12-08T19:11:53.619Z,10.60
2018-12-08T19:14:22.056Z,10.64
2018-12-08T19:16:50.996Z,10.65
2018-12-08T19:19:19.467Z,10.66
2018-12-08T19:21:47.947Z,10.68
2018-12-08T19:24:16.692Z,10.72
2018-12-08T19:29:27.088Z,10.72
2018-12-08T19:31:56.074Z,10.74
2018-12-08T19:34:24.505Z,10.74
2018-12-08T19:36:52.937Z,10.73
2018-12-08T19:39:21.605Z,10.70
2018-12-08T19:41:49.990Z,10.73
2018-12-08T19:44:18.698Z,10.72
2018-12-08T19:46:47.437Z,10.75
2018-12-08T19:49:15.950Z,10.75
2018-12-08T19:51:44.466Z,10.75
2018-12-08T19:56:55.023Z,10.73
2018-12-08T19:59:23.557Z,10.73
2018-12-08T20:01:52.059Z,10.74
2018-12-08T20:04:20.523Z,10.76
2018-12-08T20:09:31.380Z,10.76
2018-12-08T20:12:00.042Z,10.77
2018-12-08T20:14:29.582Z,10.81
2018-12-08T20:16:58.460Z,10.82
2018-12-08T20:19:26.922Z,10.84
2018-12-08T20:24:39.397Z,10.87
2018-12-08T20:27:07.911Z,10.91
2018-12-08T20:29:36.816Z,10.91
2018-12-08T20:32:05.026Z,10.93
2018-12-08T20:34:33.755Z,10.96
2018-12-08T20:37:02.287Z,10.99
2018-12-08T20:39:30.790Z,11.01
2018-12-08T20:41:59.785Z,11.04
2018-12-08T20:44:28.357Z,11.09
2018-12-08T20:46:56.903Z,11.10
2018-12-08T20:49:26.929Z,11.12
2018-12-08T20:51:55.362Z,11.14
2018-12-08T20:54:24.148Z,11.16
2018-12-08T20:56:52.700Z,11.17
2018-12-08T20:59:21.344Z,11.17
2018-12-08T21:01:49.911Z,11.16
2018-12-08T21:04:18.426Z,11.17
2018-12-08T21:06:46.923Z,11.19
2018-12-08T21:09:15.518Z,11.20
2018-12-08T21:11:44.715Z,11.24
2018-12-08T21:16:55.436Z,11.28
2018-12-08T21:19:24.919Z,11.30
2018-12-08T21:21:53.526Z,11.30
2018-12-08T21:24:22.216Z,11.33
2018-12-08T21:29:32.158Z,11.38
2018-12-08T21:32:00.911Z,11.38
2018-12-08T21:34:29.568Z,11.36
2018-12-08T21:36:58.116Z,11.37
2018-12-08T21:39:26.656Z,11.36
2018-12-08T21:44:36.984Z,11.35
2018-12-08T21:47:06.681Z,11.35
2018-12-08T21:49:35.893Z,11.34
2018-12-08T21:52:04.309Z,11.35
2018-12-08T21:57:14.555Z,11.37
2018-12-08T21:59:43.218Z,11.40
2018-12-08T22:04:53.630Z,11.42
2018-12-08T22:07:22.112Z,11.44
2018-12-08T22:09:50.599Z,11.43
2018-12-08T22:12:19.156Z,11.44
2018-12-08T22:17:44.195Z,11.49
2018-12-08T22:20:14.244Z,11.51
2018-12-08T22:25:24.716Z,11.56
2018-12-08T22:27:53.168Z,11.59
2018-12-08T22:30:21.595Z,11.61
2018-12-08T22:32:50.187Z,11.61
2018-12-08T22:38:00.861Z,11.66
2018-12-08T22:40:29.360Z,11.72
2018-12-08T22:45:39.724Z,11.76
2018-12-08T22:48:08.394Z,11.81
2018-12-08T22:50:37.092Z,11.84
2018-12-08T22:53:05.545Z,11.90
2018-12-08T22:55:33.985Z,11.92
2018-12-08T23:00:51.195Z,12.00
2018-12-08T23:03:19.971Z,12.05
2018-12-08T23:08:30.539Z,12.08
2018-12-08T23:10:59.123Z,12.11
2018-12-08T23:16:09.825Z,12.15
2018-12-08T23:18:38.813Z,12.17
2018-12-08T23:21:07.365Z,12.16
2018-12-08T23:23:35.872Z,12.15
2018-12-08T23:26:04.613Z,12.16
2018-12-08T23:28:33.241Z,12.14
2018-12-08T23:33:43.280Z,12.14
2018-12-08T23:36:12.008Z,12.15
2018-12-08T23:38:40.604Z,12.13
2018-12-08T23:41:09.438Z,12.10
2018-12-08T23:43:37.881Z,12.07
2018-12-08T23:46:06.307Z,12.05
2018-12-08T23:48:38.536Z,12.02
2018-12-08T23:51:06.935Z,12.01
2018-12-08T23:53:35.368Z,11.98
2018-12-08T23:56:03.836Z,11.95
2018-12-08T23:58:32.241Z,11.95
